Time;durP1;ratioP1;P1;durP2;ratioP2;P2;SDS_P1;SDS_P2;PMS_P1;PMS_P2;Temp;Humidity;BMP_temperature;BMP_pressure;BME280_temperature;BME280_humidity;BME280_pressure;Samples;Min_cycle;Max_cycle;Signal;HPM_P1;HPM_P2
2021/11/30 00:00:16;;;;;;;10.50;5.10;;;3.70;99.90;;;;;;5128157;27;20371;-68
2021/11/30 00:02:44;;;;;;;8.57;5.10;;;3.70;99.90;;;;;;5131707;27;20240;-70
2021/11/30 00:05:13;;;;;;;11.10;5.03;;;3.80;99.90;;;;;;5141365;27;20190;-69
2021/11/30 00:07:41;;;;;;;11.90;5.17;;;3.80;99.90;;;;;;5148351;27;20221;-69
2021/11/30 00:12:56;;;;;;;6.50;4.50;;;3.90;99.90;;;;;;5123547;27;20185;-69
2021/11/30 00:15:26;;;;;;;9.13;5.10;;;3.90;99.90;;;;;;5131352;27;20194;-69
2021/11/30 00:17:54;;;;;;;8.13;4.60;;;4.00;99.90;;;;;;5127548;27;20205;-70
2021/11/30 00:20:23;;;;;;;6.63;4.70;;;4.00;99.90;;;;;;5151993;27;20186;-68
2021/11/30 00:22:51;;;;;;;7.80;4.53;;;4.00;99.90;;;;;;5122680;27;20205;-69
2021/11/30 00:25:20;;;;;;;10.07;4.50;;;4.10;99.90;;;;;;5131328;27;20177;-69
2021/11/30 00:27:48;;;;;;;7.30;4.27;;;4.10;99.90;;;;;;5147986;27;20197;-69
2021/11/30 00:30:17;;;;;;;8.60;4.40;;;4.00;99.90;;;;;;5149563;27;20272;-69
2021/11/30 00:32:53;;;;;;;6.73;4.57;;;4.00;99.90;;;;;;5149089;27;20221;-69
2021/11/30 00:35:23;;;;;;;6.00;4.50;;;4.10;99.90;;;;;;5150338;27;20216;-69
2021/11/30 00:37:52;;;;;;;5.90;4.20;;;4.10;99.90;;;;;;5157835;27;20225;-69
2021/11/30 00:40:21;;;;;;;6.97;4.63;;;4.10;99.90;;;;;;5151337;27;20548;-69
2021/11/30 00:42:49;;;;;;;4.53;4.10;;;4.10;99.90;;;;;;5148210;27;20218;-69
2021/11/30 00:45:21;;;;;;;6.33;4.53;;;4.20;99.90;;;;;;5136339;27;20223;-69
2021/11/30 00:47:53;;;;;;;10.03;4.53;;;4.10;99.90;;;;;;5159828;27;20197;-69
2021/11/30 00:50:25;;;;;;;10.30;4.50;;;4.20;99.90;;;;;;5129491;27;20221;-70
2021/11/30 00:52:55;;;;;;;7.20;4.30;;;4.10;99.90;;;;;;5156414;27;20254;-69
2021/11/30 00:55:24;;;;;;;6.73;4.27;;;4.20;99.90;;;;;;5150639;27;20705;-69
2021/11/30 00:57:53;;;;;;;5.17;4.27;;;4.20;99.90;;;;;;5150387;27;20267;-69
2021/11/30 01:00:21;;;;;;;5.07;4.00;;;4.20;99.90;;;;;;5145833;27;20540;-69
2021/11/30 01:03:11;;;;;;;6.33;3.73;;;4.20;99.90;;;;;;5142617;27;20654;-71
2021/11/30 01:06:18;;;;;;;6.03;3.60;;;4.20;99.90;;;;;;5145580;27;20212;-71
2021/11/30 01:08:47;;;;;;;4.57;4.17;;;4.10;99.90;;;;;;5134044;27;20211;-69
2021/11/30 01:11:16;;;;;;;4.17;3.77;;;4.20;99.90;;;;;;5134798;27;20211;-69
2021/11/30 01:13:44;;;;;;;5.13;4.10;;;4.20;99.90;;;;;;5146868;27;20246;-69
2021/11/30 01:16:13;;;;;;;10.47;4.37;;;4.20;99.90;;;;;;5154881;27;20262;-70
2021/11/30 01:18:41;;;;;;;5.27;3.73;;;4.20;99.90;;;;;;5144843;27;20181;-70
2021/11/30 01:21:10;;;;;;;6.10;4.63;;;4.20;99.90;;;;;;5141679;27;20206;-69
2021/11/30 01:23:40;;;;;;;6.43;3.77;;;4.30;99.90;;;;;;5128230;27;20297;-70
2021/11/30 01:26:09;;;;;;;7.90;4.13;;;4.20;99.90;;;;;;5152865;27;20225;-70
2021/11/30 01:28:37;;;;;;;9.00;3.77;;;4.20;99.90;;;;;;5146481;27;20973;-70
2021/11/30 01:31:06;;;;;;;7.40;4.37;;;4.20;99.90;;;;;;5123206;27;20186;-70
2021/11/30 01:33:35;;;;;;;4.20;3.80;;;4.20;99.90;;;;;;5139580;27;20587;-68
2021/11/30 01:36:05;;;;;;;5.80;3.50;;;4.30;99.90;;;;;;5145893;27;20242;-69
2021/11/30 01:38:35;;;;;;;7.17;4.00;;;4.30;99.90;;;;;;5131453;27;20234;-69
2021/11/30 01:41:06;;;;;;;8.23;3.97;;;4.30;99.90;;;;;;5127354;27;20224;-69
2021/11/30 01:43:40;;;;;;;4.40;3.97;;;4.40;99.90;;;;;;5143569;27;20213;-69
2021/11/30 01:46:11;;;;;;;4.17;3.73;;;4.40;99.90;;;;;;5150887;27;20312;-70
2021/11/30 01:51:28;;;;;;;5.20;3.50;;;4.50;99.90;;;;;;5150595;27;20196;-69
2021/11/30 01:53:58;;;;;;;6.33;3.30;;;4.50;99.90;;;;;;5152754;27;20727;-69
2021/11/30 01:56:27;;;;;;;5.00;3.50;;;4.50;99.90;;;;;;5145996;27;20600;-69
2021/11/30 01:58:56;;;;;;;5.63;3.57;;;4.60;99.90;;;;;;5140183;27;20206;-68
2021/11/30 02:01:25;;;;;;;4.07;3.50;;;4.60;99.90;;;;;;5141344;27;20669;-69
2021/11/30 02:03:54;;;;;;;4.70;3.63;;;4.60;99.90;;;;;;5124108;27;20248;-69
2021/11/30 02:06:23;;;;;;;6.43;3.87;;;4.60;99.90;;;;;;5150933;27;20197;-69
2021/11/30 02:08:51;;;;;;;12.70;4.10;;;4.60;99.90;;;;;;5147167;27;20220;-69
2021/11/30 02:11:19;;;;;;;6.00;3.70;;;4.70;99.90;;;;;;5154007;27;20297;-69
2021/11/30 02:13:49;;;;;;;5.43;3.60;;;4.70;99.90;;;;;;5151264;27;20277;-69
2021/11/30 02:16:20;;;;;;;5.73;3.27;;;4.70;99.90;;;;;;5135479;27;20245;-69
2021/11/30 02:18:52;;;;;;;3.70;3.40;;;4.80;99.90;;;;;;5145641;27;20652;-70
2021/11/30 02:21:24;;;;;;;4.00;3.70;;;4.80;99.90;;;;;;5148089;27;20280;-69
2021/11/30 02:23:59;;;;;;;5.27;4.00;;;4.90;99.90;;;;;;5126213;27;20714;-69
2021/11/30 02:26:29;;;;;;;4.23;3.80;;;4.90;99.90;;;;;;5139636;27;20243;-68
2021/11/30 02:28:58;;;;;;;5.40;4.07;;;5.00;99.90;;;;;;5135854;27;20685;-68
2021/11/30 02:31:30;;;;;;;4.13;3.83;;;5.10;99.90;;;;;;5145824;27;20281;-69
2021/11/30 02:33:59;;;;;;;7.87;4.70;;;5.10;99.90;;;;;;5138265;27;20200;-69
2021/11/30 02:36:36;;;;;;;7.17;4.27;;;5.20;99.90;;;;;;5125478;27;20190;-70
2021/11/30 02:39:07;;;;;;;4.67;4.07;;;5.20;99.90;;;;;;5145312;27;20521;-69
2021/11/30 02:41:36;;;;;;;4.63;4.30;;;5.30;99.90;;;;;;5157551;27;20189;-69
2021/11/30 02:44:06;;;;;;;8.20;4.67;;;5.30;99.90;;;;;;5142787;27;20791;-70
2021/11/30 02:46:37;;;;;;;6.43;4.90;;;5.40;99.90;;;;;;5146646;27;20237;-69
2021/11/30 02:49:10;;;;;;;4.50;4.13;;;5.40;99.90;;;;;;5139044;27;20666;-69
2021/11/30 02:51:46;;;;;;;5.07;4.47;;;5.50;99.90;;;;;;5149852;27;20268;-69
2021/11/30 02:54:18;;;;;;;6.13;4.83;;;5.50;99.90;;;;;;5145589;27;20196;-69
2021/11/30 02:56:49;;;;;;;8.30;4.87;;;5.50;99.90;;;;;;5147034;27;20194;-71
2021/11/30 02:59:18;;;;;;;9.03;5.03;;;5.60;99.90;;;;;;5148616;27;20201;-69
2021/11/30 03:01:54;;;;;;;5.37;4.80;;;5.60;99.90;;;;;;5150083;27;20273;-69
2021/11/30 03:04:23;;;;;;;7.93;5.00;;;5.60;99.90;;;;;;5142673;27;20209;-69
2021/11/30 03:06:53;;;;;;;8.73;4.90;;;5.60;99.90;;;;;;5155733;27;20456;-69
2021/11/30 03:09:24;;;;;;;6.30;4.50;;;5.60;99.90;;;;;;5153625;27;20246;-69
2021/11/30 03:11:54;;;;;;;7.23;4.67;;;5.60;99.90;;;;;;5150898;27;20369;-69
2021/11/30 03:14:23;;;;;;;6.53;5.40;;;5.60;99.90;;;;;;5126760;27;20189;-69
2021/11/30 03:16:51;;;;;;;8.37;5.90;;;5.60;99.90;;;;;;5146020;27;20224;-69
2021/11/30 03:19:21;;;;;;;7.93;5.83;;;5.60;99.90;;;;;;5148813;27;20197;-69
2021/11/30 03:21:49;;;;;;;8.00;5.60;;;5.60;99.90;;;;;;5149522;27;20254;-69
2021/11/30 03:24:19;;;;;;;8.70;5.90;;;5.60;99.90;;;;;;5148307;27;20574;-69
2021/11/30 03:26:47;;;;;;;9.40;6.57;;;5.60;99.90;;;;;;5149921;27;20189;-69
2021/11/30 03:29:16;;;;;;;15.27;6.93;;;5.60;99.90;;;;;;5146791;27;20281;-69
2021/11/30 03:31:52;;;;;;;12.80;7.63;;;5.50;99.90;;;;;;5154034;27;20277;-69
2021/11/30 03:34:22;;;;;;;10.67;7.73;;;5.50;99.90;;;;;;5129573;27;20188;-69
2021/11/30 03:36:53;;;;;;;10.97;8.10;;;5.50;99.90;;;;;;5146339;27;20659;-69
2021/11/30 03:39:26;;;;;;;11.83;7.63;;;5.50;99.90;;;;;;5147880;27;20738;-71
2021/11/30 03:41:56;;;;;;;11.70;8.47;;;5.50;99.90;;;;;;5144099;27;20264;-70
2021/11/30 03:44:25;;;;;;;11.30;8.80;;;5.40;99.90;;;;;;5146587;27;20633;-69
2021/11/30 03:46:54;;;;;;;16.07;9.53;;;5.40;99.90;;;;;;5151665;27;20193;-71
2021/11/30 03:49:23;;;;;;;12.40;9.40;;;5.40;99.90;;;;;;5148173;27;20206;-70
2021/11/30 03:51:51;;;;;;;14.90;9.47;;;5.40;99.90;;;;;;5148155;27;20646;-70
2021/11/30 03:54:20;;;;;;;17.07;10.50;;;5.40;99.90;;;;;;5144577;27;20236;-70
2021/11/30 03:56:53;;;;;;;11.63;9.93;;;5.40;99.90;;;;;;5147536;27;20301;-70
2021/11/30 03:59:21;;;;;;;15.47;10.00;;;5.40;99.90;;;;;;5137930;27;20202;-71
2021/11/30 04:01:50;;;;;;;18.37;10.37;;;5.40;99.90;;;;;;5146005;27;20197;-70
2021/11/30 04:04:23;;;;;;;16.47;9.87;;;5.40;99.90;;;;;;5145986;27;20288;-70
2021/11/30 04:06:55;;;;;;;16.77;10.20;;;5.50;99.90;;;;;;5150668;27;20201;-70
2021/11/30 04:09:25;;;;;;;15.23;10.43;;;5.50;99.90;;;;;;5136376;27;20217;-70
2021/11/30 04:11:56;;;;;;;14.77;9.97;;;5.60;99.90;;;;;;5129973;27;20216;-69
2021/11/30 04:14:26;;;;;;;19.93;10.63;;;5.60;99.90;;;;;;5141951;27;20686;-70
2021/11/30 04:16:55;;;;;;;20.97;10.67;;;5.60;99.90;;;;;;5146325;27;20216;-70
2021/11/30 04:19:24;;;;;;;15.03;10.53;;;5.70;99.90;;;;;;5141380;27;20197;-70
2021/11/30 04:21:52;;;;;;;14.77;10.00;;;5.70;99.90;;;;;;5128234;27;20276;-70
2021/11/30 04:24:21;;;;;;;21.20;10.67;;;5.70;99.90;;;;;;5127438;27;20233;-69
2021/11/30 04:26:49;;;;;;;16.67;10.47;;;5.80;99.90;;;;;;5142161;27;20256;-70
2021/11/30 04:29:20;;;;;;;15.13;10.37;;;5.80;99.90;;;;;;5142309;27;20781;-70
2021/11/30 04:31:54;;;;;;;17.83;11.33;;;5.90;99.90;;;;;;5148154;27;20213;-70
2021/11/30 04:34:22;;;;;;;16.17;11.67;;;5.90;99.90;;;;;;5152382;27;20720;-70
2021/11/30 04:36:51;;;;;;;15.17;10.97;;;5.90;99.90;;;;;;5148219;27;20236;-71
2021/11/30 04:39:19;;;;;;;14.57;10.70;;;5.90;99.90;;;;;;5147715;27;20242;-70
2021/11/30 04:41:48;;;;;;;18.97;11.60;;;6.00;99.90;;;;;;5122609;27;20189;-72
2021/11/30 04:44:19;;;;;;;18.33;11.50;;;6.00;99.90;;;;;;5140632;27;20831;-70
2021/11/30 04:46:53;;;;;;;20.87;11.97;;;6.00;99.90;;;;;;5152967;27;20244;-71
2021/11/30 04:49:42;;;;;;;23.77;11.90;;;6.00;99.90;;;;;;5138735;27;20197;-71
2021/11/30 04:52:13;;;;;;;20.87;12.53;;;6.00;99.90;;;;;;5133604;27;20185;-71
2021/11/30 04:54:42;;;;;;;16.57;12.03;;;6.00;99.90;;;;;;5150415;27;20193;-70
2021/11/30 04:57:11;;;;;;;19.43;12.30;;;6.00;99.90;;;;;;5140386;27;20293;-70
2021/11/30 04:59:41;;;;;;;18.93;12.87;;;6.00;99.90;;;;;;5109616;27;20277;-71
2021/11/30 05:02:09;;;;;;;18.83;13.40;;;6.00;99.90;;;;;;5151168;27;20194;-71
2021/11/30 05:04:39;;;;;;;23.50;13.63;;;6.00;99.90;;;;;;5151497;27;20201;-70
2021/11/30 05:07:08;;;;;;;21.03;13.70;;;6.00;99.90;;;;;;5155722;27;20225;-71
2021/11/30 05:09:37;;;;;;;21.50;13.67;;;6.10;99.90;;;;;;5157941;27;20280;-71
2021/11/30 05:12:06;;;;;;;21.83;13.77;;;6.00;99.90;;;;;;5150914;27;20781;-71
2021/11/30 05:14:34;;;;;;;25.37;13.77;;;6.10;99.90;;;;;;5160106;27;20186;-70
2021/11/30 05:17:04;;;;;;;22.00;13.93;;;6.10;99.90;;;;;;5147540;27;20235;-71
2021/11/30 05:19:33;;;;;;;22.13;13.57;;;6.10;99.90;;;;;;5117128;27;20193;-70
2021/11/30 05:22:01;;;;;;;22.30;14.00;;;6.10;99.90;;;;;;5153990;27;20266;-71
2021/11/30 05:24:30;;;;;;;23.80;13.83;;;6.10;99.90;;;;;;5122125;27;20202;-71
2021/11/30 05:26:59;;;;;;;23.37;14.33;;;6.20;99.90;;;;;;5149019;27;20210;-70
2021/11/30 05:29:27;;;;;;;20.80;12.90;;;6.20;99.90;;;;;;5150803;27;20582;-71
2021/11/30 05:31:55;;;;;;;18.90;13.20;;;6.30;99.90;;;;;;5138216;27;20247;-71
2021/11/30 05:34:25;;;;;;;19.77;12.90;;;6.30;99.90;;;;;;5152673;27;20501;-71
2021/11/30 05:36:54;;;;;;;20.90;12.93;;;6.30;99.90;;;;;;5123696;27;20229;-71
2021/11/30 05:39:22;;;;;;;22.27;12.87;;;6.40;99.90;;;;;;5154246;27;20705;-71
2021/11/30 05:41:51;;;;;;;19.43;12.40;;;6.40;99.90;;;;;;5138849;27;20647;-71
2021/11/30 05:44:19;;;;;;;23.87;11.97;;;6.40;99.90;;;;;;5143454;27;20640;-71
2021/11/30 05:46:49;;;;;;;19.07;12.50;;;6.50;99.90;;;;;;5151551;27;20919;-70
2021/11/30 05:49:18;;;;;;;21.37;12.10;;;6.50;99.90;;;;;;5153061;27;20232;-71
2021/11/30 05:51:47;;;;;;;18.83;11.93;;;6.50;99.90;;;;;;5156590;27;20201;-70
2021/11/30 05:54:16;;;;;;;16.80;11.63;;;6.60;99.90;;;;;;5149992;27;20272;-70
2021/11/30 05:57:02;;;;;;;20.27;11.40;;;6.60;99.90;;;;;;5144146;27;20589;-71
2021/11/30 05:59:36;;;;;;;19.77;11.13;;;6.60;99.90;;;;;;5120406;27;20185;-71
2021/11/30 06:02:05;;;;;;;14.33;10.43;;;6.70;99.90;;;;;;5135145;27;20198;-71
2021/11/30 06:04:34;;;;;;;17.07;10.17;;;6.70;99.90;;;;;;5152553;27;20749;-73
2021/11/30 06:07:05;;;;;;;15.47;9.90;;;6.80;99.90;;;;;;5133187;27;20213;-70
2021/11/30 06:09:34;;;;;;;11.60;9.23;;;6.80;99.90;;;;;;5144906;27;20193;-71
2021/11/30 06:12:04;;;;;;;12.87;9.60;;;6.80;99.90;;;;;;5117635;27;20193;-70
2021/11/30 06:14:32;;;;;;;11.43;8.63;;;6.90;99.90;;;;;;5140277;27;20240;-71
2021/11/30 06:17:01;;;;;;;13.87;9.10;;;6.90;99.90;;;;;;5144688;27;20190;-71
2021/11/30 06:19:30;;;;;;;13.20;9.80;;;7.00;99.90;;;;;;5161992;27;20212;-70
2021/11/30 06:21:59;;;;;;;14.20;9.27;;;7.00;99.90;;;;;;5144395;27;20284;-70
2021/11/30 06:24:29;;;;;;;12.17;8.97;;;7.00;99.90;;;;;;5148105;27;20276;-71
2021/11/30 06:26:57;;;;;;;8.97;8.07;;;7.10;99.90;;;;;;5127786;27;20244;-70
2021/11/30 06:29:26;;;;;;;9.67;8.10;;;7.10;99.90;;;;;;5145464;27;20246;-71
2021/11/30 06:31:54;;;;;;;12.23;7.83;;;7.10;99.90;;;;;;5148016;27;20205;-70
2021/11/30 06:34:23;;;;;;;10.07;7.97;;;7.10;99.90;;;;;;5145097;27;20193;-71
2021/11/30 06:36:52;;;;;;;11.10;8.10;;;7.10;99.90;;;;;;5131452;27;20401;-70
2021/11/30 06:39:21;;;;;;;7.97;7.17;;;7.10;99.90;;;;;;5143935;27;20208;-70
2021/11/30 06:41:51;;;;;;;11.37;7.90;;;7.20;99.90;;;;;;5141944;27;20233;-71
2021/11/30 06:44:20;;;;;;;10.30;8.37;;;7.20;99.90;;;;;;5133537;27;20197;-70
2021/11/30 06:46:48;;;;;;;8.97;7.30;;;7.20;99.90;;;;;;5139717;27;20209;-70
2021/11/30 06:49:17;;;;;;;10.50;7.43;;;7.30;99.90;;;;;;5141319;27;20201;-70
2021/11/30 06:51:46;;;;;;;12.77;7.73;;;7.30;99.90;;;;;;5127288;27;20198;-71
2021/11/30 06:54:14;;;;;;;10.00;7.70;;;7.30;99.90;;;;;;5143456;27;20208;-71
2021/11/30 06:56:43;;;;;;;9.13;7.40;;;7.40;99.90;;;;;;5145673;27;20189;-70
2021/11/30 06:59:13;;;;;;;10.97;7.30;;;7.40;99.90;;;;;;5141570;27;20683;-71
2021/11/30 07:01:44;;;;;;;8.37;7.20;;;7.40;99.90;;;;;;5142300;27;20262;-70
2021/11/30 07:04:13;;;;;;;9.83;7.50;;;7.40;99.90;;;;;;5120441;27;20194;-70
2021/11/30 07:06:44;;;;;;;10.70;7.33;;;7.40;99.90;;;;;;5134396;27;20228;-71
2021/11/30 07:09:19;;;;;;;10.77;6.83;;;7.50;99.90;;;;;;5150731;27;20197;-69
2021/11/30 07:12:00;;;;;;;10.07;7.77;;;7.50;99.90;;;;;;5155820;27;20191;-69
2021/11/30 07:14:31;;;;;;;8.53;7.63;;;7.60;99.90;;;;;;5140205;27;20208;-72
2021/11/30 07:17:01;;;;;;;11.03;7.23;;;7.60;99.90;;;;;;5128152;27;20190;-70
2021/11/30 07:19:31;;;;;;;11.70;7.70;;;7.70;99.90;;;;;;5153623;27;20196;-70
2021/11/30 07:22:02;;;;;;;9.50;8.07;;;7.70;99.90;;;;;;5147710;27;20208;-70
2021/11/30 07:24:36;;;;;;;9.23;8.20;;;7.70;99.90;;;;;;5131470;27;20185;-71
2021/11/30 07:27:05;;;;;;;10.40;8.30;;;7.70;99.90;;;;;;5148859;27;20642;-71
2021/11/30 07:29:43;;;;;;;15.80;8.60;;;7.70;99.90;;;;;;5129186;27;20193;-71
2021/11/30 07:32:12;;;;;;;10.70;8.33;;;7.70;99.90;;;;;;5136975;27;20264;-71
2021/11/30 07:34:40;;;;;;;14.33;8.67;;;7.70;99.90;;;;;;5137725;27;20197;-70
2021/11/30 07:37:09;;;;;;;11.33;9.03;;;7.70;99.90;;;;;;5152509;27;20186;-71
2021/11/30 07:39:38;;;;;;;18.07;9.30;;;7.70;99.90;;;;;;5136057;27;20212;-71
2021/11/30 07:42:07;;;;;;;11.03;9.60;;;7.80;99.90;;;;;;5132724;27;20197;-72
2021/11/30 07:44:35;;;;;;;12.23;9.57;;;7.80;99.90;;;;;;5139652;27;20265;-71
2021/11/30 07:47:05;;;;;;;15.97;10.33;;;7.80;99.90;;;;;;5136348;27;20209;-70
2021/11/30 07:49:34;;;;;;;13.47;10.10;;;7.80;99.90;;;;;;5144945;27;20239;-70
2021/11/30 07:52:03;;;;;;;13.33;9.77;;;7.80;99.90;;;;;;5133136;27;20194;-71
2021/11/30 07:54:31;;;;;;;16.17;10.10;;;7.80;99.90;;;;;;5139646;27;20189;-70
2021/11/30 07:57:00;;;;;;;15.77;10.70;;;7.80;99.90;;;;;;5147403;27;20189;-71
2021/11/30 07:59:29;;;;;;;16.20;10.17;;;7.80;99.90;;;;;;5122622;27;20336;-70
2021/11/30 08:01:58;;;;;;;14.27;10.73;;;7.90;99.90;;;;;;5140320;27;20786;-71
2021/11/30 08:04:31;;;;;;;15.93;10.27;;;7.90;99.90;;;;;;5126405;27;20251;-71
2021/11/30 08:06:59;;;;;;;16.13;10.50;;;7.90;99.90;;;;;;5142694;27;20210;-71
2021/11/30 08:09:32;;;;;;;14.13;10.70;;;7.90;99.90;;;;;;5145230;27;20197;-70
2021/11/30 08:12:01;;;;;;;15.57;11.00;;;7.90;99.90;;;;;;5146750;27;20259;-70
2021/11/30 08:14:29;;;;;;;16.77;11.47;;;7.90;99.90;;;;;;5142511;27;20570;-71
2021/11/30 08:17:00;;;;;;;18.17;13.00;;;8.00;99.90;;;;;;5125830;27;20755;-71
2021/11/30 08:19:30;;;;;;;18.47;12.50;;;8.00;99.90;;;;;;5141597;27;20205;-70
2021/11/30 08:21:59;;;;;;;20.70;12.97;;;8.00;99.90;;;;;;5142943;27;20637;-71
2021/11/30 08:24:27;;;;;;;18.67;12.50;;;8.00;99.90;;;;;;5142992;27;20756;-71
2021/11/30 08:26:56;;;;;;;22.83;13.73;;;7.90;99.90;;;;;;5144897;27;20217;-71
2021/11/30 08:29:25;;;;;;;20.57;13.90;;;8.00;99.90;;;;;;5144252;27;20193;-71
2021/11/30 08:31:56;;;;;;;23.37;13.70;;;8.00;99.90;;;;;;5113730;27;20631;-71
2021/11/30 08:34:25;;;;;;;22.30;13.57;;;8.00;99.90;;;;;;5147210;27;20254;-70
2021/11/30 08:36:55;;;;;;;20.97;14.20;;;8.10;99.90;;;;;;5128934;27;20544;-71
2021/11/30 08:39:24;;;;;;;18.67;13.10;;;8.10;99.90;;;;;;5149251;27;20197;-70
2021/11/30 08:41:52;;;;;;;20.80;13.87;;;8.10;99.90;;;;;;5147787;27;20204;-70
2021/11/30 08:44:28;;;;;;;19.80;12.80;;;8.20;99.90;;;;;;5146232;27;20774;-71
2021/11/30 08:47:00;;;;;;;24.90;12.90;;;8.20;99.90;;;;;;5147027;27;20628;-71
2021/11/30 08:49:29;;;;;;;20.93;13.23;;;8.20;99.90;;;;;;5149658;27;20189;-71
2021/11/30 08:52:00;;;;;;;19.37;12.63;;;8.20;99.90;;;;;;5128237;27;20193;-71
2021/11/30 08:54:29;;;;;;;18.13;12.40;;;8.20;99.90;;;;;;5147272;27;20189;-71
2021/11/30 08:56:59;;;;;;;16.27;11.87;;;8.30;99.90;;;;;;5148635;27;20189;-70
2021/11/30 08:59:28;;;;;;;15.37;11.40;;;8.30;99.90;;;;;;5149629;27;20683;-70
2021/11/30 09:01:59;;;;;;;16.03;11.77;;;8.30;99.90;;;;;;5147114;27;20825;-71
2021/11/30 09:04:28;;;;;;;19.07;10.90;;;8.30;99.90;;;;;;5147485;27;20679;-71
2021/11/30 09:06:57;;;;;;;17.23;10.57;;;8.30;99.90;;;;;;5149299;27;20200;-71
2021/11/30 09:09:27;;;;;;;17.80;10.20;;;8.30;99.90;;;;;;5146567;27;20828;-70
2021/11/30 09:12:04;;;;;;;14.57;9.57;;;8.40;99.90;;;;;;5147757;27;20675;-71
2021/11/30 09:14:33;;;;;;;14.67;10.03;;;8.40;99.90;;;;;;5148711;27;20202;-69
2021/11/30 09:17:02;;;;;;;16.60;9.13;;;8.40;99.90;;;;;;5130978;27;20566;-69
2021/11/30 09:19:31;;;;;;;14.93;9.50;;;8.50;99.90;;;;;;5147396;27;20571;-70
2021/11/30 09:22:00;;;;;;;16.60;9.37;;;8.50;99.90;;;;;;5128622;27;20581;-70
2021/11/30 09:24:31;;;;;;;12.33;8.73;;;8.60;99.90;;;;;;5146722;27;20224;-71
2021/11/30 09:26:59;;;;;;;13.10;8.83;;;8.60;99.90;;;;;;5148157;27;20272;-70
2021/11/30 09:29:28;;;;;;;18.03;9.57;;;8.60;99.90;;;;;;5147192;27;20213;-71
2021/11/30 09:31:57;;;;;;;12.90;8.63;;;8.60;99.90;;;;;;5148079;27;20655;-70
2021/11/30 09:34:26;;;;;;;10.80;7.87;;;8.70;99.90;;;;;;5145877;27;20189;-70
2021/11/30 09:36:55;;;;;;;12.93;8.53;;;8.60;99.90;;;;;;5147681;27;20205;-70
2021/11/30 09:39:24;;;;;;;12.90;8.30;;;8.60;99.90;;;;;;5127396;27;20758;-70
2021/11/30 09:41:54;;;;;;;10.73;7.63;;;8.60;99.90;;;;;;5144632;27;20666;-69
2021/11/30 09:44:23;;;;;;;12.67;8.40;;;8.70;99.90;;;;;;5129118;27;20678;-71
2021/11/30 09:46:53;;;;;;;9.43;7.80;;;8.60;99.90;;;;;;5146697;27;20220;-70
2021/11/30 09:49:22;;;;;;;10.07;8.50;;;8.70;99.90;;;;;;5148226;27;20225;-71
2021/11/30 09:51:50;;;;;;;14.27;8.53;;;8.70;99.90;;;;;;5145901;27;20257;-69
2021/11/30 09:54:19;;;;;;;11.33;8.13;;;8.80;99.90;;;;;;5146826;27;20231;-70
2021/11/30 09:56:47;;;;;;;13.03;7.90;;;8.80;99.90;;;;;;5143501;27;20537;-71
2021/11/30 09:59:18;;;;;;;12.93;8.00;;;8.80;99.90;;;;;;5162040;27;20194;-70
2021/11/30 10:01:46;;;;;;;13.10;9.03;;;8.80;99.90;;;;;;5144986;27;20212;-70
2021/11/30 10:04:15;;;;;;;12.07;7.77;;;8.80;99.90;;;;;;5145727;27;20285;-70
2021/11/30 10:06:45;;;;;;;11.20;8.27;;;8.80;99.90;;;;;;5128357;27;20190;-71
2021/11/30 10:09:20;;;;;;;17.37;10.27;;;8.80;99.90;;;;;;5127046;27;20241;-71
2021/11/30 10:11:58;;;;;;;16.77;9.70;;;8.90;99.90;;;;;;5147302;27;20193;-71
2021/11/30 10:14:34;;;;;;;15.97;9.37;;;8.90;99.90;;;;;;5128854;27;20537;-71
2021/11/30 10:17:19;;;;;;;13.53;8.70;;;8.90;99.90;;;;;;5146862;27;20225;-70
2021/11/30 10:19:57;;;;;;;13.33;9.10;;;8.90;99.90;;;;;;5147127;27;20193;-70
2021/11/30 10:22:40;;;;;;;16.07;10.10;;;8.90;99.90;;;;;;5145567;27;20229;-70
2021/11/30 10:25:12;;;;;;;12.33;8.63;;;8.90;99.90;;;;;;5144821;27;20204;-70
2021/11/30 10:27:46;;;;;;;11.87;8.83;;;9.00;99.90;;;;;;5158312;27;20185;-70
2021/11/30 10:30:23;;;;;;;15.07;8.47;;;9.00;99.90;;;;;;5126956;27;20185;-70
2021/11/30 10:32:53;;;;;;;10.10;8.43;;;9.00;99.90;;;;;;5147958;27;20228;-70
2021/11/30 10:35:24;;;;;;;11.03;8.13;;;9.10;99.90;;;;;;5147678;27;20202;-69
2021/11/30 10:37:53;;;;;;;9.67;8.33;;;9.20;99.90;;;;;;5145080;27;20694;-71
2021/11/30 10:40:24;;;;;;;11.30;10.10;;;9.20;99.90;;;;;;5145225;27;20205;-70
2021/11/30 10:42:56;;;;;;;9.93;8.73;;;9.20;99.90;;;;;;5142610;27;20208;-71
2021/11/30 10:45:29;;;;;;;10.93;7.80;;;9.20;99.90;;;;;;5145701;27;20225;-70
2021/11/30 10:48:09;;;;;;;10.30;7.87;;;9.20;99.90;;;;;;5144866;27;20285;-69
2021/11/30 10:50:42;;;;;;;13.60;8.53;;;9.20;99.90;;;;;;5147741;27;20194;-69
2021/11/30 10:53:23;;;;;;;11.17;8.60;;;9.20;99.90;;;;;;5125355;27;20194;-69
2021/11/30 10:55:54;;;;;;;15.30;8.77;;;9.20;99.90;;;;;;5141520;27;20727;-69
2021/11/30 10:58:25;;;;;;;12.80;8.30;;;9.30;99.90;;;;;;5142517;27;20234;-71
2021/11/30 11:00:57;;;;;;;9.93;8.40;;;9.30;99.90;;;;;;5142800;27;20201;-69
2021/11/30 11:03:28;;;;;;;10.83;8.77;;;9.30;99.90;;;;;;5144879;27;20275;-69
2021/11/30 11:08:46;;;;;;;9.97;8.30;;;9.30;99.90;;;;;;5144580;27;20270;-69
2021/11/30 11:11:21;;;;;;;13.20;9.20;;;9.30;99.90;;;;;;5144407;27;20475;-70
2021/11/30 11:13:50;;;;;;;15.53;9.10;;;9.30;99.90;;;;;;5148609;27;20197;-70
2021/11/30 11:16:26;;;;;;;13.47;8.60;;;9.30;99.90;;;;;;5129777;27;20228;-70
2021/11/30 11:18:56;;;;;;;13.53;8.70;;;9.30;99.90;;;;;;5148461;27;20282;-70
2021/11/30 11:21:27;;;;;;;11.00;8.40;;;9.30;99.90;;;;;;5145845;27;20229;-70
2021/11/30 11:24:07;;;;;;;12.93;8.37;;;9.40;99.90;;;;;;5143232;27;20209;-70
2021/11/30 11:26:38;;;;;;;11.73;8.37;;;9.40;99.90;;;;;;5147980;27;20220;-69
2021/11/30 11:29:11;;;;;;;13.53;8.53;;;9.40;99.90;;;;;;5163134;27;20209;-70
2021/11/30 11:31:43;;;;;;;14.80;8.87;;;9.40;99.90;;;;;;5148723;27;20679;-70
2021/11/30 11:34:15;;;;;;;11.93;9.13;;;9.40;99.90;;;;;;5141422;27;20287;-70
2021/11/30 11:36:44;;;;;;;10.00;9.10;;;9.40;99.90;;;;;;5126606;27;20280;-69
2021/11/30 11:39:14;;;;;;;14.13;9.30;;;9.40;99.90;;;;;;5142642;27;20221;-70
2021/11/30 11:41:49;;;;;;;10.67;9.00;;;9.40;99.90;;;;;;5121233;27;20209;-71
2021/11/30 11:44:20;;;;;;;13.03;8.77;;;9.40;99.90;;;;;;5142965;27;20258;-69
2021/11/30 11:46:52;;;;;;;13.30;8.37;;;9.40;99.90;;;;;;5126765;27;20728;-70
2021/11/30 11:49:23;;;;;;;9.97;8.33;;;9.40;99.90;;;;;;5123269;27;20286;-69
2021/11/30 11:51:56;;;;;;;9.00;8.17;;;9.50;99.90;;;;;;5123904;27;20204;-70
2021/11/30 11:54:29;;;;;;;12.57;8.67;;;9.50;99.90;;;;;;5142061;27;20205;-70
2021/11/30 11:57:01;;;;;;;11.00;8.07;;;9.40;99.90;;;;;;5145216;27;20205;-70
2021/11/30 11:59:34;;;;;;;13.00;9.17;;;9.40;99.90;;;;;;5139487;27;20197;-70
2021/11/30 12:02:20;;;;;;;9.13;8.03;;;9.50;99.90;;;;;;5138999;27;20201;-70
2021/11/30 12:04:52;;;;;;;12.27;8.00;;;9.50;99.90;;;;;;5159479;27;20189;-69
2021/11/30 12:07:21;;;;;;;13.63;8.40;;;9.50;99.90;;;;;;5149102;27;20200;-70
2021/11/30 12:10:10;;;;;;;12.07;7.73;;;9.60;99.90;;;;;;5148490;27;20251;-69
2021/11/30 12:12:39;;;;;;;13.13;7.73;;;9.50;99.90;;;;;;5149649;27;20667;-70
2021/11/30 12:15:08;;;;;;;9.10;8.03;;;9.50;99.90;;;;;;5150341;27;20201;-70
2021/11/30 12:17:38;;;;;;;8.63;7.70;;;9.50;99.90;;;;;;5133935;27;20189;-69
2021/11/30 12:20:13;;;;;;;12.73;8.30;;;9.50;99.90;;;;;;5148129;27;20193;-70
2021/11/30 12:22:57;;;;;;;11.20;8.27;;;9.50;99.90;;;;;;5165146;27;20771;-69
2021/11/30 12:25:48;;;;;;;9.10;8.07;;;9.50;99.90;;;;;;5133856;27;20200;-69
2021/11/30 12:28:35;;;;;;;8.23;7.53;;;9.50;99.90;;;;;;5150959;27;20736;-69
2021/11/30 12:31:04;;;;;;;9.07;8.03;;;9.60;99.90;;;;;;5152294;27;20699;-71
2021/11/30 12:33:36;;;;;;;13.17;8.23;;;9.60;99.90;;;;;;5152360;27;20193;-70
2021/11/30 12:36:07;;;;;;;10.87;9.00;;;9.60;99.90;;;;;;5152044;27;20280;-70
2021/11/30 12:38:39;;;;;;;16.90;8.67;;;9.70;99.90;;;;;;5152001;27;20194;-69
2021/11/30 12:41:29;;;;;;;19.03;9.13;;;9.70;99.90;;;;;;5131304;27;20189;-69
2021/11/30 12:44:07;;;;;;;9.50;8.47;;;9.70;99.90;;;;;;5131405;27;20221;-69
2021/11/30 12:46:37;;;;;;;10.17;8.20;;;9.80;99.90;;;;;;5133647;27;20624;-69
2021/11/30 12:49:32;;;;;;;11.50;7.83;;;9.80;99.90;;;;;;5132973;27;20201;-69
2021/11/30 12:52:14;;;;;;;10.57;8.60;;;9.90;99.90;;;;;;5151058;27;20304;-69
2021/11/30 12:54:44;;;;;;;10.40;8.10;;;9.90;99.90;;;;;;5131946;27;20240;-69
2021/11/30 12:57:18;;;;;;;9.53;7.80;;;10.00;99.90;;;;;;5152390;27;20265;-69
2021/11/30 13:00:08;;;;;;;10.57;8.00;;;10.00;99.90;;;;;;5151101;27;20671;-68
2021/11/30 13:02:39;;;;;;;8.50;7.70;;;10.00;99.90;;;;;;5133000;27;20189;-69
2021/11/30 13:05:27;;;;;;;11.27;8.53;;;10.00;99.90;;;;;;5151138;27;20205;-69
2021/11/30 13:08:07;;;;;;;8.23;7.53;;;10.00;99.90;;;;;;5133217;27;20193;-69
2021/11/30 13:10:42;;;;;;;11.17;7.97;;;10.10;99.90;;;;;;5151697;27;20228;-69
2021/11/30 13:13:17;;;;;;;8.63;7.03;;;10.10;99.90;;;;;;5152060;27;20200;-69
2021/11/30 13:15:48;;;;;;;7.43;6.77;;;10.10;99.90;;;;;;5151627;27;20254;-69